createdAt,value
2023-12-18T00:00:56.044Z,-0.089324
2023-12-18T00:01:54.953Z,-0.097444
2023-12-18T00:02:56.000Z,-0.08938
2023-12-18T00:03:55.023Z,-0.089267
2023-12-18T00:04:56.011Z,-0.097444
2023-12-18T00:05:55.958Z,-0.097444
2023-12-18T00:06:58.232Z,-0.097444
2023-12-18T00:07:55.023Z,-0.097444
2023-12-18T00:08:55.017Z,-0.097444
2023-12-18T00:09:55.968Z,-0.097444
2023-12-18T00:10:56.000Z,-0.097444
2023-12-18T00:11:56.037Z,-0.097444
2023-12-18T00:12:55.023Z,-0.097444
2023-12-18T00:13:54.989Z,-0.097444
2023-12-18T00:14:55.991Z,-0.097444
2023-12-18T00:15:55.990Z,-0.097444
2023-12-18T00:16:56.074Z,-0.097444
2023-12-18T00:17:55.146Z,-0.089324
2023-12-18T00:18:59.428Z,-0.089324
2023-12-18T00:19:54.984Z,-0.089324
2023-12-18T00:20:56.006Z,-0.089324
2023-12-18T00:21:56.028Z,-0.097444
2023-12-18T00:22:54.999Z,-0.081202
2023-12-18T00:23:55.989Z,-0.089324
2023-12-18T00:24:55.055Z,-0.097444
2023-12-18T00:25:56.039Z,-0.081204
2023-12-18T00:26:56.059Z,-0.089324
2023-12-18T00:27:55.093Z,-0.064964
2023-12-18T00:28:56.042Z,-0.089324
2023-12-18T00:29:55.059Z,-0.089324
2023-12-18T00:30:56.129Z,-0.097444
2023-12-18T00:31:56.083Z,-0.089357
2023-12-18T00:32:55.129Z,0.008548
2023-12-18T00:33:56.164Z,0
2023-12-18T00:34:55.081Z,-0.008119
2023-12-18T00:35:56.067Z,-0.032488
2023-12-18T00:36:55.074Z,-0.032475
2023-12-18T00:37:55.080Z,-0.089324
2023-12-18T00:38:56.111Z,-0.089324
2023-12-18T00:39:55.054Z,-0.097444
2023-12-18T00:40:56.071Z,-0.097444
2023-12-18T00:41:55.047Z,-0.097444
2023-12-18T00:42:55.094Z,-0.073084
2023-12-18T00:43:56.104Z,-0.064962
2023-12-18T00:44:55.052Z,-0.097444
2023-12-18T00:45:56.084Z,-0.081204
2023-12-18T00:46:55.113Z,-0.089324
2023-12-18T00:47:59.486Z,-0.089324
2023-12-18T00:48:55.188Z,-0.081204
2023-12-18T00:49:55.232Z,-0.097444
2023-12-18T00:50:56.106Z,-0.097444
2023-12-18T00:51:55.066Z,-0.097444
2023-12-18T00:52:56.061Z,-0.081204
2023-12-18T00:53:55.066Z,-0.089324
2023-12-18T00:54:55.114Z,-0.081204
2023-12-18T00:55:56.114Z,-0.048722
2023-12-18T00:56:55.071Z,-0.056843
2023-12-18T00:57:56.115Z,-0.032481
2023-12-18T00:58:55.076Z,-0.073083
2023-12-18T00:59:55.115Z,0
2023-12-18T01:00:56.229Z,-0.0455
2023-12-18T01:01:55.088Z,-0.052615
2023-12-18T01:02:56.159Z,-0.008122
2023-12-18T01:03:55.224Z,0.00000162628
2023-12-18T01:04:56.132Z,-0.081204
2023-12-18T01:05:56.159Z,0
2023-12-18T01:06:55.136Z,-0.040602
2023-12-18T01:07:56.146Z,-0.00812
2023-12-18T01:08:55.106Z,-0.00812
2023-12-18T01:09:56.152Z,0.016241
2023-12-18T01:10:56.138Z,0.032481
2023-12-18T01:11:55.156Z,-0.097444
2023-12-18T01:12:56.176Z,-0.081204
2023-12-18T01:13:55.155Z,-0.056842
2023-12-18T01:14:56.174Z,-0.081204
2023-12-18T01:15:56.166Z,-0.089324
2023-12-18T01:16:59.470Z,-0.097444
2023-12-18T01:17:55.184Z,-0.097444
2023-12-18T01:18:55.246Z,-0.097444
2023-12-18T01:19:56.229Z,-0.097444
2023-12-18T01:20:56.163Z,-0.097444
2023-12-18T01:21:56.117Z,-0.097444
2023-12-18T01:23:02.169Z,-0.097444
2023-12-18T01:23:55.175Z,-0.097444
2023-12-18T01:24:56.178Z,-0.097444
2023-12-18T01:25:56.148Z,-0.097444
2023-12-18T01:26:56.159Z,-0.097444
2023-12-18T01:27:55.222Z,-0.097444
2023-12-18T01:28:55.144Z,-0.097444
2023-12-18T01:29:56.186Z,-0.097444
2023-12-18T01:30:56.276Z,-0.097444
2023-12-18T01:31:56.192Z,-0.097444
2023-12-18T01:32:55.268Z,-0.089324
2023-12-18T01:33:56.268Z,-0.081204
2023-12-18T01:34:55.159Z,-0.081204
2023-12-18T01:35:56.204Z,-0.081204
2023-12-18T01:36:56.223Z,-0.089324
2023-12-18T01:37:55.213Z,-0.056843
2023-12-18T01:38:56.230Z,-0.089324
2023-12-18T01:39:55.205Z,-0.097444
2023-12-18T01:40:56.215Z,-0.097444
2023-12-18T01:41:56.219Z,-0.097444
2023-12-18T01:42:55.230Z,-0.040602
2023-12-18T01:43:56.222Z,-0.032483
2023-12-18T01:44:55.227Z,-0.081203
2023-12-18T01:46:00.809Z,-0.097444
2023-12-18T01:46:55.187Z,-0.097444
2023-12-18T01:47:55.314Z,-0.097444
2023-12-18T01:48:56.308Z,-0.097444
2023-12-18T01:49:55.215Z,-0.097444
2023-12-18T01:50:56.232Z,-0.097444
2023-12-18T01:51:55.235Z,-0.097444
2023-12-18T01:52:55.247Z,-0.081204
2023-12-18T01:53:56.220Z,-0.081204
2023-12-18T01:54:55.234Z,-0.073083
2023-12-18T01:55:56.226Z,-0.081204
2023-12-18T01:56:55.237Z,-0.089324
2023-12-18T01:57:55.269Z,-0.073083
2023-12-18T01:58:56.248Z,-0.089367
2023-12-18T01:59:55.247Z,-0.064791
2023-12-18T02:00:56.489Z,-0.097444
2023-12-18T02:01:55.231Z,-0.089324
2023-12-18T02:02:56.296Z,-0.064963
2023-12-18T02:03:55.342Z,-0.089324
2023-12-18T02:04:55.295Z,-0.097444
2023-12-18T02:05:56.214Z,-0.089324
2023-12-18T02:06:55.268Z,-0.089324
2023-12-18T02:07:56.260Z,0.00812
2023-12-18T02:08:55.276Z,-0.024361
2023-12-18T02:09:55.276Z,-0.056845
2023-12-18T02:10:56.255Z,0.000004871095
2023-12-18T02:11:55.269Z,-0.097444
2023-12-18T02:12:56.287Z,-0.089324
2023-12-18T02:13:55.291Z,-0.073083
2023-12-18T02:14:59.713Z,-0.089324
2023-12-18T02:15:56.281Z,-0.089324
2023-12-18T02:16:55.289Z,-0.089324
2023-12-18T02:17:56.342Z,-0.089325
2023-12-18T02:18:55.356Z,-0.07308
2023-12-18T02:20:03.536Z,-0.081204
2023-12-18T02:20:56.313Z,-0.065123
2023-12-18T02:21:55.260Z,-0.097444
2023-12-18T02:22:56.305Z,-0.032481
2023-12-18T02:23:55.336Z,0.008119
2023-12-18T02:24:56.265Z,0.024363
2023-12-18T02:25:56.265Z,-0.024366
2023-12-18T02:26:55.312Z,-0.008114
2023-12-18T02:27:56.277Z,-0.029181
2023-12-18T02:28:55.308Z,-0.001335
2023-12-18T02:29:56.310Z,0.040602
2023-12-18T02:31:08.304Z,-0.00812
2023-12-18T02:31:58.534Z,-0.060013
2023-12-18T02:32:55.404Z,-0.035343
2023-12-18T02:33:55.451Z,-0.064962
2023-12-18T02:34:56.388Z,-0.064963
2023-12-18T02:35:56.317Z,-0.024361
2023-12-18T02:36:56.280Z,-0.081204
2023-12-18T02:37:55.356Z,0.056843
2023-12-18T02:38:55.314Z,-0.024361
2023-12-18T02:39:56.323Z,-0.016241
2023-12-18T02:40:56.776Z,-0.056843
2023-12-18T02:41:56.361Z,-0.032481
2023-12-18T02:42:55.351Z,-0.032481
2023-12-18T02:43:59.640Z,0.00812
2023-12-18T02:44:55.330Z,-0.032481
2023-12-18T02:45:56.330Z,-0.024361
2023-12-18T02:46:56.363Z,-0.089324
2023-12-18T02:47:55.432Z,-0.097444
2023-12-18T02:48:56.401Z,-0.089323
2023-12-18T02:49:55.330Z,-0.081206
2023-12-18T02:50:56.356Z,-0.097444
2023-12-18T02:51:56.358Z,-0.097444
2023-12-18T02:52:55.365Z,-0.040602
2023-12-18T02:53:56.389Z,-0.032483
2023-12-18T02:54:55.378Z,-0.040601
2023-12-18T02:55:56.337Z,-0.081204
2023-12-18T02:56:56.390Z,-0.073272
2023-12-18T02:57:55.338Z,-0.023785
2023-12-18T02:58:56.379Z,-0.081203
2023-12-18T02:59:55.333Z,-0.081204
2023-12-18T03:01:00.056Z,-0.097444
2023-12-18T03:01:55.339Z,-0.089324
2023-12-18T03:02:55.421Z,-0.097444
2023-12-18T03:03:56.539Z,-0.097444
2023-12-18T03:04:55.435Z,-0.097444
2023-12-18T03:05:56.474Z,-0.097444
2023-12-18T03:06:55.354Z,-0.097444
2023-12-18T03:07:55.374Z,-0.097444
2023-12-18T03:08:56.378Z,-0.097444
2023-12-18T03:09:55.392Z,-0.089324
2023-12-18T03:10:56.383Z,-0.097444
2023-12-18T03:11:55.361Z,-0.089324
2023-12-18T03:12:59.644Z,-0.097444
2023-12-18T03:13:55.398Z,-0.081204
2023-12-18T03:14:55.411Z,-0.097444
2023-12-18T03:15:56.369Z,-0.081204
2023-12-18T03:16:55.414Z,-0.081204
2023-12-18T03:17:56.478Z,-0.089324
2023-12-18T03:18:55.484Z,-0.097444
2023-12-18T03:19:55.381Z,-0.073083
2023-12-18T03:20:56.409Z,0.048722
2023-12-18T03:21:55.420Z,-0.097444
2023-12-18T03:22:56.384Z,-0.048719
2023-12-18T03:23:55.430Z,-0.048722
2023-12-18T03:24:55.484Z,-0.089324
2023-12-18T03:25:56.447Z,-0.081394
2023-12-18T03:26:55.402Z,-0.089226
2023-12-18T03:27:56.481Z,-0.097444
2023-12-18T03:28:55.401Z,-0.089323
2023-12-18T03:29:56.430Z,-0.081204
2023-12-18T03:30:56.481Z,-0.089324
2023-12-18T03:31:55.410Z,-0.081204
2023-12-18T03:32:56.464Z,-0.097444
2023-12-18T03:33:55.452Z,-0.097444
2023-12-18T03:34:56.405Z,-0.097444
2023-12-18T03:35:56.438Z,-0.089324
2023-12-18T03:36:55.472Z,-0.089324
2023-12-18T03:37:56.456Z,-0.073083
2023-12-18T03:38:55.421Z,-0.089324
2023-12-18T03:39:56.456Z,-0.056841
2023-12-18T03:40:56.406Z,-0.089324
2023-12-18T03:42:03.959Z,-0.097444
2023-12-18T03:42:55.419Z,-0.097444
2023-12-18T03:43:55.465Z,-0.097444
2023-12-18T03:44:56.492Z,-0.089324
2023-12-18T03:45:56.429Z,-0.081203
2023-12-18T03:46:56.475Z,-0.097444
2023-12-18T03:47:55.531Z,-0.097444
2023-12-18T03:48:55.544Z,-0.097444
2023-12-18T03:49:56.466Z,-0.097444
2023-12-18T03:50:56.491Z,-0.089324
2023-12-18T03:51:56.480Z,-0.097444
2023-12-18T03:52:55.502Z,-0.097444
2023-12-18T03:53:55.454Z,-0.097444
2023-12-18T03:54:56.451Z,-0.081274
2023-12-18T03:55:56.494Z,-0.089288
2023-12-18T03:56:56.481Z,-0.097444
2023-12-18T03:57:55.587Z,-0.089324
2023-12-18T03:58:56.452Z,-0.097444
2023-12-18T03:59:55.506Z,-0.089324
2023-12-18T04:00:56.546Z,-0.097444
2023-12-18T04:01:56.517Z,-0.089324
2023-12-18T04:02:55.528Z,-0.089324
2023-12-18T04:03:56.551Z,-0.073083
2023-12-18T04:04:55.564Z,-0.089324
2023-12-18T04:05:56.503Z,-0.097444
2023-12-18T04:06:56.479Z,-0.089324
2023-12-18T04:07:55.516Z,-0.073083
2023-12-18T04:08:56.519Z,-0.073083
2023-12-18T04:09:55.505Z,-0.040604
2023-12-18T04:10:59.819Z,0.008124
2023-12-18T04:11:55.542Z,-0.056843
2023-12-18T04:12:55.532Z,0
2023-12-18T04:13:56.513Z,-0.040602
2023-12-18T04:14:55.539Z,-0.081206
2023-12-18T04:15:58.949Z,-0.07308
2023-12-18T04:16:55.485Z,-0.081204
2023-12-18T04:17:55.638Z,-0.081204
2023-12-18T04:18:56.622Z,-0.097444
2023-12-18T04:19:55.508Z,-0.089324
2023-12-18T04:20:56.505Z,-0.097444
2023-12-18T04:21:55.557Z,-0.089324
2023-12-18T04:22:55.558Z,-0.089324
2023-12-18T04:23:56.613Z,-0.097444
2023-12-18T04:24:55.597Z,-0.097444
2023-12-18T04:25:56.570Z,-0.097444
2023-12-18T04:26:55.561Z,-0.097444
2023-12-18T04:27:56.687Z,-0.089324
2023-12-18T04:28:55.549Z,-0.097444
2023-12-18T04:29:55.579Z,-0.089324
2023-12-18T04:30:56.645Z,-0.081204
2023-12-18T04:31:55.536Z,-0.089324
2023-12-18T04:32:56.658Z,-0.089324
2023-12-18T04:33:55.680Z,-0.097444
2023-12-18T04:34:55.540Z,-0.097444
2023-12-18T04:35:56.571Z,-0.097444
2023-12-18T04:36:55.748Z,-0.089324
2023-12-18T04:37:56.628Z,-0.048722
2023-12-18T04:38:55.532Z,-0.089324
2023-12-18T04:39:59.844Z,-0.064963
2023-12-18T04:40:56.570Z,-0.073083
2023-12-18T04:41:55.595Z,-0.040602
2023-12-18T04:42:56.626Z,-0.00812
2023-12-18T04:43:55.542Z,-0.032483
2023-12-18T04:44:56.548Z,0.056845
2023-12-18T04:45:56.546Z,0.032481
2023-12-18T04:46:55.602Z,-0.040603
2023-12-18T04:47:56.643Z,0.097448
2023-12-18T04:48:55.766Z,-0.00812
2023-12-18T04:49:56.605Z,0.048722
2023-12-18T04:50:56.612Z,0.040602
2023-12-18T04:51:55.703Z,-0.073083
2023-12-18T04:52:56.592Z,-0.0094
2023-12-18T04:53:55.613Z,-0.015043
2023-12-18T04:54:56.614Z,-0.048722
2023-12-18T04:55:56.604Z,0.024361
2023-12-18T04:56:58.936Z,-0.064963
2023-12-18T04:57:55.612Z,-0.048723
2023-12-18T04:58:55.627Z,-0.089324
2023-12-18T04:59:56.649Z,-0.073083
2023-12-18T05:01:07.195Z,-0.081204
2023-12-18T05:01:56.619Z,-0.082125
2023-12-18T05:02:55.643Z,-0.071523
2023-12-18T05:03:55.708Z,-0.081204
2023-12-18T05:04:56.716Z,-0.081204
2023-12-18T05:05:56.634Z,-0.097444
2023-12-18T05:06:56.604Z,-0.097444
2023-12-18T05:07:55.668Z,-0.097444
2023-12-18T05:08:59.922Z,-0.089324
2023-12-18T05:09:55.709Z,-0.097444
2023-12-18T05:10:56.618Z,-0.097444
2023-12-18T05:11:56.665Z,-0.097444
2023-12-18T05:12:55.669Z,-0.081204
2023-12-18T05:13:56.611Z,-0.097444
2023-12-18T05:14:55.652Z,-0.081204
2023-12-18T05:15:56.717Z,-0.097444
2023-12-18T05:16:56.658Z,-0.097444
2023-12-18T05:17:55.698Z,-0.073081
2023-12-18T05:18:56.730Z,-0.081204
2023-12-18T05:19:55.633Z,-0.089324
2023-12-18T05:20:56.666Z,-0.081204
2023-12-18T05:21:56.708Z,-0.089412
2023-12-18T05:22:55.681Z,-0.097444
2023-12-18T05:23:56.635Z,-0.089324
2023-12-18T05:24:55.684Z,-0.097444
2023-12-18T05:26:16.063Z,-0.097444
2023-12-18T05:26:55.648Z,-0.090717
2023-12-18T05:27:55.700Z,-0.097444
2023-12-18T05:28:56.665Z,-0.097444
2023-12-18T05:29:55.647Z,-0.097444
2023-12-18T05:30:56.755Z,-0.097444
2023-12-18T05:31:55.665Z,-0.097444
2023-12-18T05:32:55.715Z,-0.097444
2023-12-18T05:33:56.840Z,-0.097444
2023-12-18T05:34:55.684Z,-0.097444
2023-12-18T05:35:56.723Z,-0.097444
2023-12-18T05:36:55.692Z,-0.097444
2023-12-18T05:38:00.003Z,-0.097444
2023-12-18T05:38:55.717Z,-0.097444
2023-12-18T05:39:55.720Z,-0.097444
2023-12-18T05:40:56.699Z,-0.097444
2023-12-18T05:41:55.697Z,-0.097444
2023-12-18T05:42:56.758Z,-0.097444
2023-12-18T05:43:55.690Z,-0.097444
2023-12-18T05:44:55.708Z,-0.097444
2023-12-18T05:45:56.712Z,-0.097444
2023-12-18T05:46:55.687Z,-0.097444
2023-12-18T05:47:56.761Z,-0.097444
2023-12-18T05:48:55.811Z,-0.097444
2023-12-18T05:49:55.817Z,-0.097444
2023-12-18T05:50:56.721Z,-0.097444
2023-12-18T05:51:55.694Z,-0.097444
2023-12-18T05:52:56.707Z,-0.097444
2023-12-18T05:53:55.691Z,-0.097444
2023-12-18T05:54:56.735Z,-0.097444
2023-12-18T05:55:56.745Z,-0.097444
2023-12-18T05:56:55.756Z,-0.097444
2023-12-18T05:57:56.722Z,-0.097444
2023-12-18T05:58:55.718Z,-0.097444
2023-12-18T05:59:56.731Z,-0.097444
2023-12-18T06:00:59.537Z,-0.097444
2023-12-18T06:01:55.723Z,-0.097444
2023-12-18T06:02:56.710Z,-0.097444
2023-12-18T06:03:55.896Z,-0.097444
2023-12-18T06:04:56.770Z,-0.097444
2023-12-18T06:05:56.866Z,-0.097444
2023-12-18T06:07:00.059Z,-0.097444
2023-12-18T06:07:55.726Z,-0.097444
2023-12-18T06:08:55.803Z,-0.097444
2023-12-18T06:09:56.778Z,-0.097444
2023-12-18T06:10:56.759Z,-0.097444
2023-12-18T06:11:56.751Z,-0.097444
2023-12-18T06:12:55.885Z,-0.097444
2023-12-18T06:13:55.749Z,-0.097444
2023-12-18T06:14:56.777Z,-0.097444
2023-12-18T06:15:56.806Z,-0.097444
2023-12-18T06:16:56.791Z,-0.097444
2023-12-18T06:17:55.861Z,-0.097444
2023-12-18T06:18:55.888Z,-0.097444
2023-12-18T06:19:56.789Z,-0.097444
2023-12-18T06:20:56.767Z,-0.097444
2023-12-18T06:21:56.842Z,-0.097444
2023-12-18T06:22:55.764Z,-0.097444
2023-12-18T06:23:56.791Z,-0.097444
2023-12-18T06:24:55.811Z,-0.097444
2023-12-18T06:25:57.463Z,-0.097444
2023-12-18T06:26:56.765Z,-0.097444
2023-12-18T06:27:55.808Z,-0.097444
2023-12-18T06:28:56.762Z,-0.097444
2023-12-18T06:29:55.821Z,-0.097444
2023-12-18T06:30:56.845Z,-0.097444
2023-12-18T06:31:56.846Z,-0.097444
2023-12-18T06:32:55.839Z,-0.097444
2023-12-18T06:33:57.022Z,-0.097444
2023-12-18T06:34:55.985Z,-0.097444
2023-12-18T06:36:00.107Z,-0.097444
2023-12-18T06:36:55.782Z,-0.097444
2023-12-18T06:37:55.845Z,-0.097444
2023-12-18T06:38:56.867Z,-0.097444
2023-12-18T06:39:55.836Z,-0.097444
2023-12-18T06:40:56.825Z,-0.097444
2023-12-18T06:41:55.843Z,-0.097444
2023-12-18T06:42:55.909Z,-0.097444
2023-12-18T06:43:56.869Z,-0.097444
2023-12-18T06:44:55.849Z,-0.097444
2023-12-18T06:45:56.825Z,-0.097444
2023-12-18T06:46:55.816Z,-0.097444
2023-12-18T06:47:55.980Z,-0.097444
2023-12-18T06:48:56.956Z,-0.097444
2023-12-18T06:49:55.829Z,-0.097444
2023-12-18T06:50:56.840Z,-0.097444
2023-12-18T06:51:55.858Z,-0.097444
2023-12-18T06:53:00.190Z,-0.097444
2023-12-18T06:53:55.863Z,-0.097444
2023-12-18T06:54:55.871Z,-0.097444
2023-12-18T06:55:56.868Z,-0.097444
2023-12-18T06:56:55.888Z,-0.097444
2023-12-18T06:57:56.898Z,-0.097444
2023-12-18T06:58:55.891Z,-0.097444
2023-12-18T06:59:55.835Z,-0.097444
2023-12-18T07:00:56.936Z,-0.097444
2023-12-18T07:01:55.890Z,-0.097444
2023-12-18T07:02:56.916Z,-0.097444
2023-12-18T07:03:55.874Z,-0.097444
2023-12-18T07:05:04.398Z,-0.097444
2023-12-18T07:05:56.896Z,-0.097444
2023-12-18T07:06:55.903Z,-0.097444
2023-12-18T07:07:56.918Z,-0.097444
2023-12-18T07:08:55.926Z,-0.097444
2023-12-18T07:09:56.994Z,-0.097444
2023-12-18T07:10:56.876Z,-0.097444
2023-12-18T07:11:55.868Z,-0.097444
2023-12-18T07:12:56.951Z,-0.097444
2023-12-18T07:13:55.862Z,-0.097444
2023-12-18T07:14:56.910Z,-0.097444
2023-12-18T07:15:56.909Z,-0.097444
2023-12-18T07:16:55.923Z,-0.097444
2023-12-18T07:17:56.999Z,-0.097444
2023-12-18T07:18:55.986Z,-0.097444
2023-12-18T07:19:56.883Z,-0.097444
2023-12-18T07:20:56.878Z,-0.097444
2023-12-18T07:21:56.896Z,-0.097444
2023-12-18T07:22:55.930Z,-0.097444
2023-12-18T07:23:55.895Z,-0.097444
2023-12-18T07:24:56.885Z,-0.097444
2023-12-18T07:26:07.872Z,-0.097444
2023-12-18T07:26:56.911Z,-0.097444
2023-12-18T07:27:55.892Z,-0.097444
2023-12-18T07:28:55.946Z,-0.097444
2023-12-18T07:29:56.950Z,-0.097444
2023-12-18T07:30:56.987Z,-0.097444
2023-12-18T07:31:56.907Z,-0.097444
2023-12-18T07:32:56.046Z,-0.097444
2023-12-18T07:34:00.422Z,-0.097444
2023-12-18T07:34:56.036Z,-0.097444
2023-12-18T07:35:56.914Z,-0.097444
2023-12-18T07:36:56.916Z,-0.097444
2023-12-18T07:37:55.961Z,-0.097444
2023-12-18T07:38:56.994Z,-0.097444
2023-12-18T07:39:55.966Z,-0.097444
2023-12-18T07:40:56.970Z,-0.097444
2023-12-18T07:41:56.938Z,-0.097444
2023-12-18T07:42:56.052Z,-0.097444
2023-12-18T07:43:56.997Z,-0.097444
2023-12-18T07:44:55.970Z,-0.097444
2023-12-18T07:45:57.045Z,-0.097444
2023-12-18T07:46:56.941Z,-0.097444
2023-12-18T07:47:56.040Z,-0.097444
2023-12-18T07:48:57.134Z,-0.097444
2023-12-18T07:49:56.055Z,-0.097444
2023-12-18T07:50:56.948Z,-0.097444
2023-12-18T07:51:55.944Z,-0.097444
2023-12-18T07:52:55.995Z,-0.097444
2023-12-18T07:53:56.990Z,-0.097444
2023-12-18T07:54:55.994Z,-0.097444
2023-12-18T07:55:56.973Z,-0.097444
2023-12-18T07:56:55.951Z,-0.097444
2023-12-18T07:57:56.008Z,-0.097444
2023-12-18T07:58:56.987Z,-0.097444
2023-12-18T07:59:56.004Z,-0.097444
2023-12-18T08:00:57.091Z,-0.097444
2023-12-18T08:01:55.958Z,-0.097444
2023-12-18T08:03:01.142Z,-0.097444
2023-12-18T08:03:56.064Z,-0.097444
2023-12-18T08:04:55.992Z,-0.097444
2023-12-18T08:05:56.987Z,-0.097444
2023-12-18T08:06:55.979Z,-0.097444
2023-12-18T08:07:57.034Z,-0.097444
2023-12-18T08:08:56.031Z,-0.097444
2023-12-18T08:09:56.036Z,-0.097444
2023-12-18T08:10:56.998Z,-0.097444
2023-12-18T08:11:56.030Z,-0.097444
2023-12-18T08:12:57.032Z,-0.097444
2023-12-18T08:13:56.005Z,-0.097444
2023-12-18T08:14:56.033Z,-0.097444
2023-12-18T08:15:57.022Z,-0.097444
2023-12-18T08:16:56.001Z,-0.097444
2023-12-18T08:17:57.121Z,-0.097444
2023-12-18T08:18:56.108Z,-0.097444
2023-12-18T08:19:57.015Z,-0.097444
2023-12-18T08:20:57.070Z,-0.097444
2023-12-18T08:21:56.110Z,-0.097444
2023-12-18T08:22:57.046Z,-0.097444
2023-12-18T08:23:56.070Z,-0.097444
2023-12-18T08:24:57.006Z,-0.097444
2023-12-18T08:25:57.024Z,-0.097444
2023-12-18T08:26:56.064Z,-0.097444
2023-12-18T08:27:57.124Z,-0.097444
2023-12-18T08:28:56.024Z,-0.097444
2023-12-18T08:29:57.070Z,-0.097444
2023-12-18T08:30:57.116Z,-0.097444
2023-12-18T08:32:00.488Z,-0.097444
2023-12-18T08:32:56.032Z,-0.097444
2023-12-18T08:33:56.206Z,-0.097444
2023-12-18T08:34:57.096Z,-0.097444
2023-12-18T08:35:57.052Z,-0.097444
2023-12-18T08:36:57.028Z,-0.097444
2023-12-18T08:37:56.090Z,-0.097444
2023-12-18T08:38:56.086Z,-0.097444
2023-12-18T08:39:57.171Z,-0.097444
2023-12-18T08:41:08.894Z,-0.097444
2023-12-18T08:41:57.049Z,-0.097444
2023-12-18T08:42:56.121Z,-0.097444
2023-12-18T08:44:03.121Z,-0.097444
2023-12-18T08:44:58.226Z,-0.097444
2023-12-18T08:45:57.078Z,-0.097444
2023-12-18T08:46:57.108Z,-0.097444
2023-12-18T08:47:56.230Z,-0.097444
2023-12-18T08:49:09.130Z,-0.097444
2023-12-18T08:49:56.082Z,-0.097444
2023-12-18T08:50:57.109Z,-0.097444
2023-12-18T08:51:57.159Z,-0.097444
2023-12-18T08:52:56.075Z,-0.097444
2023-12-18T08:53:57.084Z,-0.097444
2023-12-18T08:54:56.125Z,-0.097444
2023-12-18T08:55:57.099Z,-0.097444
2023-12-18T08:56:57.152Z,-0.097444
2023-12-18T08:57:56.132Z,-0.097444
2023-12-18T08:58:57.223Z,-0.097444
2023-12-18T08:59:56.096Z,-0.097444
2023-12-18T09:01:00.590Z,-0.097444
2023-12-18T09:01:56.100Z,-0.097444
2023-12-18T09:02:56.150Z,-0.097444
2023-12-18T09:03:57.278Z,-0.097444
2023-12-18T09:04:56.102Z,-0.097444
2023-12-18T09:05:57.132Z,-0.097444
2023-12-18T09:06:56.145Z,-0.097444
2023-12-18T09:07:56.105Z,-0.097444
2023-12-18T09:08:57.175Z,-0.097444
2023-12-18T09:09:56.167Z,-0.097444
2023-12-18T09:10:57.115Z,-0.097444
2023-12-18T09:11:56.157Z,-0.097444
2023-12-18T09:12:56.198Z,-0.097444
2023-12-18T09:13:57.147Z,-0.097444
2023-12-18T09:14:56.164Z,-0.097444
2023-12-18T09:15:57.157Z,-0.097444
2023-12-18T09:16:56.138Z,-0.097444
2023-12-18T09:17:59.439Z,-0.097444
2023-12-18T09:18:56.161Z,-0.097444
2023-12-18T09:19:56.167Z,-0.097444
2023-12-18T09:20:57.158Z,-0.097444
2023-12-18T09:21:56.203Z,-0.097444
2023-12-18T09:22:57.165Z,-0.097444
2023-12-18T09:23:56.183Z,-0.097444
2023-12-18T09:24:56.217Z,-0.097444
2023-12-18T09:25:57.168Z,-0.097444
2023-12-18T09:26:56.140Z,-0.097444
2023-12-18T09:27:57.202Z,-0.097444
2023-12-18T09:28:56.179Z,-0.097444
2023-12-18T09:30:00.503Z,-0.097444
2023-12-18T09:30:57.260Z,-0.097444
2023-12-18T09:31:56.184Z,-0.097444
2023-12-18T09:32:57.244Z,-0.097444
2023-12-18T09:33:56.289Z,-0.097444
2023-12-18T09:34:57.335Z,-0.097444
2023-12-18T09:35:58.770Z,-0.097444
2023-12-18T09:36:56.229Z,-0.097444
2023-12-18T09:37:57.192Z,-0.097444
2023-12-18T09:38:56.199Z,-0.097444
2023-12-18T09:39:57.236Z,-0.097444
2023-12-18T09:40:57.253Z,-0.097444
2023-12-18T09:41:56.227Z,-0.097444
2023-12-18T09:42:57.270Z,-0.097444
2023-12-18T09:43:56.189Z,-0.097444
2023-12-18T09:44:57.198Z,-0.097444
2023-12-18T09:45:57.271Z,-0.097444
2023-12-18T09:46:57.184Z,-0.097444
2023-12-18T09:47:56.271Z,-0.097444
2023-12-18T09:48:56.253Z,-0.097444
2023-12-18T09:49:57.266Z,-0.097444
2023-12-18T09:50:57.205Z,-0.097444
2023-12-18T09:51:57.268Z,-0.097444
2023-12-18T09:52:56.206Z,-0.097444
2023-12-18T09:53:56.255Z,-0.097444
2023-12-18T09:54:57.237Z,-0.097444
2023-12-18T09:55:57.202Z,-0.097444
2023-12-18T09:56:57.206Z,-0.097444
2023-12-18T09:57:56.248Z,-0.097444
2023-12-18T09:59:03.104Z,-0.097444
2023-12-18T09:59:56.206Z,-0.097444
2023-12-18T10:00:57.303Z,-0.097444
2023-12-18T10:01:57.224Z,-0.097444
2023-12-18T10:02:56.301Z,-0.097444
2023-12-18T10:03:57.557Z,-0.097444
2023-12-18T10:04:56.217Z,-0.097444
2023-12-18T10:05:57.256Z,-0.097444
2023-12-18T10:06:57.277Z,-0.097444
2023-12-18T10:07:56.223Z,-0.097444
2023-12-18T10:08:57.280Z,-0.097444
2023-12-18T10:09:56.325Z,-0.097444
2023-12-18T10:10:57.218Z,-0.097444
2023-12-18T10:11:57.293Z,-0.097444
2023-12-18T10:12:56.344Z,-0.097444
2023-12-18T10:13:57.295Z,-0.097444
2023-12-18T10:14:56.287Z,-0.097444
2023-12-18T10:15:57.417Z,-0.097444
2023-12-18T10:16:56.249Z,-0.097444
2023-12-18T10:17:56.326Z,-0.081204
2023-12-18T10:18:57.307Z,-0.097444
2023-12-18T10:19:56.269Z,-0.097444
2023-12-18T10:20:57.307Z,-0.097444
2023-12-18T10:21:56.287Z,-0.089324
2023-12-18T10:22:56.252Z,-0.097444
2023-12-18T10:23:57.335Z,-0.097444
2023-12-18T10:24:56.294Z,-0.097444
2023-12-18T10:25:57.312Z,-0.097444
2023-12-18T10:26:56.305Z,-0.097444
2023-12-18T10:28:00.657Z,-0.097444
2023-12-18T10:28:56.274Z,-0.097444
2023-12-18T10:29:56.338Z,-0.097444
2023-12-18T10:30:57.364Z,-0.097444
2023-12-18T10:31:56.302Z,-0.097444
2023-12-18T10:32:57.419Z,-0.097444
2023-12-18T10:33:56.415Z,-0.097444
2023-12-18T10:34:56.284Z,-0.097444
2023-12-18T10:35:57.313Z,-0.097444
2023-12-18T10:36:56.314Z,-0.097444
2023-12-18T10:37:57.407Z,-0.097444
2023-12-18T10:38:56.293Z,-0.097444
2023-12-18T10:39:56.364Z,-0.097444
2023-12-18T10:40:57.389Z,-0.097444
2023-12-18T10:41:56.356Z,-0.097444
2023-12-18T10:42:57.364Z,-0.097444
2023-12-18T10:43:56.308Z,-0.097444
2023-12-18T10:44:59.141Z,-0.097444
2023-12-18T10:45:57.371Z,-0.097444
2023-12-18T10:46:56.331Z,-0.097444
2023-12-18T10:47:57.358Z,-0.097444
2023-12-18T10:48:56.406Z,-0.097444
2023-12-18T10:49:57.388Z,-0.097444
2023-12-18T10:50:57.361Z,-0.097444
2023-12-18T10:51:56.324Z,-0.097444
2023-12-18T10:52:57.314Z,-0.097444
2023-12-18T10:53:56.317Z,-0.097444
2023-12-18T10:54:57.384Z,-0.097444
2023-12-18T10:55:57.353Z,-0.097444
2023-12-18T10:57:00.892Z,-0.097444
2023-12-18T10:57:56.330Z,-0.097444
2023-12-18T10:58:56.336Z,-0.097444
2023-12-18T10:59:57.392Z,-0.097444
2023-12-18T11:01:07.968Z,-0.097444
2023-12-18T11:01:57.373Z,-0.097444
2023-12-18T11:02:56.462Z,-0.097444
2023-12-18T11:03:56.524Z,-0.097444
2023-12-18T11:04:57.403Z,-0.097444
2023-12-18T11:05:57.405Z,-0.097444
2023-12-18T11:06:57.528Z,-0.097444
2023-12-18T11:07:56.356Z,-0.097444
2023-12-18T11:08:56.361Z,-0.097444
2023-12-18T11:09:57.458Z,-0.097444
2023-12-18T11:10:57.374Z,-0.097444
2023-12-18T11:11:57.399Z,-0.097444
2023-12-18T11:12:56.412Z,-0.097444
2023-12-18T11:14:12.103Z,-0.097444
2023-12-18T11:14:56.458Z,-0.097444
2023-12-18T11:15:57.412Z,-0.097444
2023-12-18T11:16:57.417Z,-0.097444
2023-12-18T11:17:56.541Z,-0.097444
2023-12-18T11:19:08.488Z,-0.097444
2023-12-18T11:19:57.466Z,-0.097444
2023-12-18T11:20:57.384Z,-0.097444
2023-12-18T11:21:57.396Z,-0.097444
2023-12-18T11:22:56.421Z,-0.097444
2023-12-18T11:24:04.510Z,-0.097444
2023-12-18T11:24:57.459Z,-0.097444
2023-12-18T11:26:04.664Z,-0.097444